sensor_id;sensor_type;location;lat;lon;timestamp;pressure;altitude;pressure_sealevel;temperature;humidity
43153;BME280;28756;49.064;9.290;2023-02-28T00:01:23;99878.28;;;-4.23;100.00
43153;BME280;28756;49.064;9.290;2023-02-28T00:03:49;99881.84;;;-4.14;100.00
43153;BME280;28756;49.064;9.290;2023-02-28T00:06:15;99885.09;;;-4.22;100.00
43153;BME280;28756;49.064;9.290;2023-02-28T00:08:41;99877.41;;;-4.25;100.00
43153;BME280;28756;49.064;9.290;2023-02-28T00:11:10;99877.53;;;-4.19;100.00
43153;BME280;28756;49.064;9.290;2023-02-28T00:13:43;99880.00;;;-4.22;100.00
43153;BME280;28756;49.064;9.290;2023-02-28T00:16:22;99874.84;;;-4.27;100.00
43153;BME280;28756;49.064;9.290;2023-02-28T00:18:48;99875.72;;;-4.25;100.00
43153;BME280;28756;49.064;9.290;2023-02-28T00:21:16;99879.03;;;-4.29;100.00
43153;BME280;28756;49.064;9.290;2023-02-28T00:23:43;99874.19;;;-4.17;100.00
43153;BME280;28756;49.064;9.290;2023-02-28T00:26:09;99874.94;;;-4.21;100.00
43153;BME280;28756;49.064;9.290;2023-02-28T00:28:35;99881.75;;;-4.20;100.00
43153;BME280;28756;49.064;9.290;2023-02-28T00:31:01;99876.00;;;-4.11;100.00
43153;BME280;28756;49.064;9.290;2023-02-28T00:33:27;99877.56;;;-4.18;100.00
43153;BME280;28756;49.064;9.290;2023-02-28T00:36:06;99878.34;;;-4.20;100.00
43153;BME280;28756;49.064;9.290;2023-02-28T00:38:32;99876.69;;;-4.18;100.00
43153;BME280;28756;49.064;9.290;2023-02-28T00:40:58;99873.56;;;-4.03;100.00
43153;BME280;28756;49.064;9.290;2023-02-28T00:43:31;99873.66;;;-3.99;100.00
43153;BME280;28756;49.064;9.290;2023-02-28T00:45:57;99877.00;;;-4.00;100.00
43153;BME280;28756;49.064;9.290;2023-02-28T00:48:23;99874.53;;;-3.97;100.00
43153;BME280;28756;49.064;9.290;2023-02-28T00:50:49;99867.56;;;-4.07;100.00
43153;BME280;28756;49.064;9.290;2023-02-28T00:53:15;99861.66;;;-4.06;100.00
43153;BME280;28756;49.064;9.290;2023-02-28T00:55:41;99863.28;;;-4.11;100.00
43153;BME280;28756;49.064;9.290;2023-02-28T00:58:07;99874.31;;;-4.09;100.00
43153;BME280;28756;49.064;9.290;2023-02-28T01:00:32;99868.47;;;-4.03;100.00
43153;BME280;28756;49.064;9.290;2023-02-28T01:02:58;99876.16;;;-4.00;100.00
43153;BME280;28756;49.064;9.290;2023-02-28T01:05:24;99869.38;;;-4.01;100.00
43153;BME280;28756;49.064;9.290;2023-02-28T01:07:50;99869.47;;;-3.95;100.00
43153;BME280;28756;49.064;9.290;2023-02-28T01:10:16;99871.09;;;-3.99;100.00
43153;BME280;28756;49.064;9.290;2023-02-28T01:12:41;99873.66;;;-3.97;100.00
43153;BME280;28756;49.064;9.290;2023-02-28T01:15:10;99869.28;;;-4.06;100.00
43153;BME280;28756;49.064;9.290;2023-02-28T01:17:36;99860.88;;;-4.02;100.00
43153;BME280;28756;49.064;9.290;2023-02-28T01:20:03;99866.94;;;-3.95;100.00
43153;BME280;28756;49.064;9.290;2023-02-28T01:22:29;99862.59;;;-4.01;100.00
43153;BME280;28756;49.064;9.290;2023-02-28T01:24:55;99866.81;;;-4.03;100.00
43153;BME280;28756;49.064;9.290;2023-02-28T01:27:20;99868.63;;;-3.95;100.00
43153;BME280;28756;49.064;9.290;2023-02-28T01:29:46;99868.59;;;-3.97;100.00
43153;BME280;28756;49.064;9.290;2023-02-28T01:32:15;99856.66;;;-4.03;100.00
43153;BME280;28756;49.064;9.290;2023-02-28T01:34:41;99853.97;;;-4.09;100.00
43153;BME280;28756;49.064;9.290;2023-02-28T01:37:06;99855.78;;;-4.02;100.00
43153;BME280;28756;49.064;9.290;2023-02-28T01:39:32;99861.66;;;-4.06;100.00
43153;BME280;28756;49.064;9.290;2023-02-28T01:41:58;99861.56;;;-4.12;100.00
43153;BME280;28756;49.064;9.290;2023-02-28T01:44:58;99861.59;;;-4.09;100.00
43153;BME280;28756;49.064;9.290;2023-02-28T01:47:31;99863.38;;;-4.05;100.00
43153;BME280;28756;49.064;9.290;2023-02-28T01:49:59;99859.97;;;-4.05;100.00
43153;BME280;28756;49.064;9.290;2023-02-28T01:52:27;99853.06;;;-4.13;100.00
43153;BME280;28756;49.064;9.290;2023-02-28T01:54:56;99853.13;;;-4.11;100.00
43153;BME280;28756;49.064;9.290;2023-02-28T01:57:29;99851.25;;;-4.20;100.00
43153;BME280;28756;49.064;9.290;2023-02-28T02:00:09;99857.22;;;-4.18;100.00
43153;BME280;28756;49.064;9.290;2023-02-28T02:02:36;99848.69;;;-4.21;100.00
43153;BME280;28756;49.064;9.290;2023-02-28T02:05:19;99847.13;;;-4.15;100.00
43153;BME280;28756;49.064;9.290;2023-02-28T02:07:48;99846.06;;;-4.26;100.00
43153;BME280;28756;49.064;9.290;2023-02-28T02:10:21;99852.88;;;-4.25;100.00
43153;BME280;28756;49.064;9.290;2023-02-28T02:14:29;99846.16;;;-4.21;100.00
43153;BME280;28756;49.064;9.290;2023-02-28T02:20:05;99837.66;;;-4.22;100.00
43153;BME280;28756;49.064;9.290;2023-02-28T02:34:51;99828.41;;;-4.18;100.00
43153;BME280;28756;49.064;9.290;2023-02-28T02:38:16;99832.56;;;-4.23;100.00
43153;BME280;28756;49.064;9.290;2023-02-28T02:40:38;99828.47;;;-4.17;100.00
43153;BME280;28756;49.064;9.290;2023-02-28T02:43:31;99827.56;;;-4.20;100.00
43153;BME280;28756;49.064;9.290;2023-02-28T02:46:22;99819.22;;;-4.13;100.00
43153;BME280;28756;49.064;9.290;2023-02-28T02:48:49;99826.03;;;-4.10;100.00
43153;BME280;28756;49.064;9.290;2023-02-28T02:51:20;99833.88;;;-3.97;100.00
43153;BME280;28756;49.064;9.290;2023-02-28T02:54:11;99826.28;;;-3.93;100.00
43153;BME280;28756;49.064;9.290;2023-02-28T02:56:43;99828.00;;;-3.92;100.00
43153;BME280;28756;49.064;9.290;2023-02-28T02:59:14;99827.16;;;-3.93;100.00
43153;BME280;28756;49.064;9.290;2023-02-28T03:01:51;99824.63;;;-3.91;100.00
43153;BME280;28756;49.064;9.290;2023-02-28T03:04:23;99824.78;;;-3.84;100.00
43153;BME280;28756;49.064;9.290;2023-02-28T03:06:51;99818.06;;;-3.80;100.00
43153;BME280;28756;49.064;9.290;2023-02-28T03:09:25;99819.75;;;-3.79;100.00
43153;BME280;28756;49.064;9.290;2023-02-28T03:11:54;99822.25;;;-3.81;100.00
43153;BME280;28756;49.064;9.290;2023-02-28T03:15:10;99813.03;;;-3.75;100.00
43153;BME280;28756;49.064;9.290;2023-02-28T03:17:50;99809.69;;;-3.73;100.00
43153;BME280;28756;49.064;9.290;2023-02-28T03:23:23;99808.88;;;-3.69;100.00
43153;BME280;28756;49.064;9.290;2023-02-28T03:26:12;99807.97;;;-3.72;100.00
43153;BME280;28756;49.064;9.290;2023-02-28T03:29:22;99819.81;;;-3.74;100.00
43153;BME280;28756;49.064;9.290;2023-02-28T03:31:58;99818.97;;;-3.73;100.00
43153;BME280;28756;49.064;9.290;2023-02-28T03:34:39;99812.16;;;-3.77;100.00
43153;BME280;28756;49.064;9.290;2023-02-28T03:37:19;99818.16;;;-3.72;100.00
43153;BME280;28756;49.064;9.290;2023-02-28T03:39:57;99813.06;;;-3.72;100.00
43153;BME280;28756;49.064;9.290;2023-02-28T03:42:29;99810.53;;;-3.71;100.00
43153;BME280;28756;49.064;9.290;2023-02-28T03:45:04;99810.59;;;-3.69;100.00
43153;BME280;28756;49.064;9.290;2023-02-28T03:48:01;99814.03;;;-3.64;100.00
43153;BME280;28756;49.064;9.290;2023-02-28T03:50:46;99819.19;;;-3.59;100.00
43153;BME280;28756;49.064;9.290;2023-02-28T03:53:29;99818.28;;;-3.65;100.00
43153;BME280;28756;49.064;9.290;2023-02-28T03:56:17;99825.91;;;-3.65;100.00
43153;BME280;28756;49.064;9.290;2023-02-28T03:59:04;99826.75;;;-3.64;100.00
43153;BME280;28756;49.064;9.290;2023-02-28T04:01:42;99821.63;;;-3.67;100.00
43153;BME280;28756;49.064;9.290;2023-02-28T04:04:10;99830.91;;;-3.69;100.00
43153;BME280;28756;49.064;9.290;2023-02-28T04:06:37;99828.34;;;-3.71;100.00
43153;BME280;28756;49.064;9.290;2023-02-28T04:09:06;99830.94;;;-3.68;100.00
43153;BME280;28756;49.064;9.290;2023-02-28T04:14:10;99836.06;;;-3.65;100.00
43153;BME280;28756;49.064;9.290;2023-02-28T04:16:40;99827.63;;;-3.63;100.00
43153;BME280;28756;49.064;9.290;2023-02-28T04:19:09;99827.56;;;-3.65;100.00
43153;BME280;28756;49.064;9.290;2023-02-28T04:21:38;99831.06;;;-3.60;100.00
43153;BME280;28756;49.064;9.290;2023-02-28T04:24:07;99835.38;;;-3.54;100.00
43153;BME280;28756;49.064;9.290;2023-02-28T04:26:36;99827.78;;;-3.51;100.00
43153;BME280;28756;49.064;9.290;2023-02-28T04:29:05;99829.50;;;-3.49;100.00
43153;BME280;28756;49.064;9.290;2023-02-28T04:31:31;99835.47;;;-3.48;100.00
43153;BME280;28756;49.064;9.290;2023-02-28T04:33:57;99824.44;;;-3.47;100.00
43153;BME280;28756;49.064;9.290;2023-02-28T04:36:23;99832.97;;;-3.45;100.00
43153;BME280;28756;49.064;9.290;2023-02-28T04:38:49;99827.03;;;-3.44;100.00
43153;BME280;28756;49.064;9.290;2023-02-28T04:41:16;99837.28;;;-3.39;100.00
43153;BME280;28756;49.064;9.290;2023-02-28T04:43:42;99836.47;;;-3.37;100.00
43153;BME280;28756;49.064;9.290;2023-02-28T04:46:09;99842.44;;;-3.35;100.00
43153;BME280;28756;49.064;9.290;2023-02-28T04:48:37;99834.88;;;-3.31;100.00
43153;BME280;28756;49.064;9.290;2023-02-28T04:51:09;99839.97;;;-3.28;100.00
43153;BME280;28756;49.064;9.290;2023-02-28T04:53:37;99834.06;;;-3.27;100.00
43153;BME280;28756;49.064;9.290;2023-02-28T04:56:04;99838.31;;;-3.25;100.00
43153;BME280;28756;49.064;9.290;2023-02-28T04:58:30;99830.72;;;-3.23;100.00
43153;BME280;28756;49.064;9.290;2023-02-28T05:01:03;99829.88;;;-3.24;100.00
43153;BME280;28756;49.064;9.290;2023-02-28T05:03:29;99832.41;;;-3.22;100.00
43153;BME280;28756;49.064;9.290;2023-02-28T05:05:55;99837.56;;;-3.21;100.00
43153;BME280;28756;49.064;9.290;2023-02-28T05:08:21;99834.19;;;-3.18;100.00
43153;BME280;28756;49.064;9.290;2023-02-28T05:10:47;99835.91;;;-3.17;100.00
43153;BME280;28756;49.064;9.290;2023-02-28T05:13:13;99827.41;;;-3.18;100.00
43153;BME280;28756;49.064;9.290;2023-02-28T05:15:38;99832.53;;;-3.14;100.00
43153;BME280;28756;49.064;9.290;2023-02-28T05:18:04;99835.97;;;-3.09;100.00
43153;BME280;28756;49.064;9.290;2023-02-28T05:20:30;99834.28;;;-3.10;100.00
43153;BME280;28756;49.064;9.290;2023-02-28T05:22:57;99835.16;;;-3.10;100.00
43153;BME280;28756;49.064;9.290;2023-02-28T05:25:24;99838.53;;;-3.09;100.00
43153;BME280;28756;49.064;9.290;2023-02-28T05:27:50;99843.66;;;-3.06;100.00
43153;BME280;28756;49.064;9.290;2023-02-28T05:30:16;99837.69;;;-3.10;100.00
43153;BME280;28756;49.064;9.290;2023-02-28T05:32:42;99842.72;;;-3.11;100.00
43153;BME280;28756;49.064;9.290;2023-02-28T05:35:12;99841.06;;;-3.12;100.00
43153;BME280;28756;49.064;9.290;2023-02-28T05:37:38;99833.41;;;-3.12;100.00
43153;BME280;28756;49.064;9.290;2023-02-28T05:40:06;99836.84;;;-3.09;100.00
43153;BME280;28756;49.064;9.290;2023-02-28T05:42:33;99830.06;;;-3.10;100.00
43153;BME280;28756;49.064;9.290;2023-02-28T05:44:59;99832.63;;;-3.07;100.00
43153;BME280;28756;49.064;9.290;2023-02-28T05:47:24;99841.09;;;-3.08;100.00
43153;BME280;28756;49.064;9.290;2023-02-28T05:49:50;99839.41;;;-3.09;100.00
43153;BME280;28756;49.064;9.290;2023-02-28T05:52:16;99842.72;;;-3.11;100.00
43153;BME280;28756;49.064;9.290;2023-02-28T05:54:42;99841.06;;;-3.09;100.00
43153;BME280;28756;49.064;9.290;2023-02-28T05:57:08;99843.63;;;-3.08;100.00
43153;BME280;28756;49.064;9.290;2023-02-28T05:59:34;99841.06;;;-3.09;100.00
43153;BME280;28756;49.064;9.290;2023-02-28T06:01:59;99847.00;;;-3.10;100.00
43153;BME280;28756;49.064;9.290;2023-02-28T06:04:28;99846.97;;;-3.12;100.00
43153;BME280;28756;49.064;9.290;2023-02-28T06:06:57;99836.81;;;-3.12;100.00
43153;BME280;28756;49.064;9.290;2023-02-28T06:09:25;99845.25;;;-3.14;100.00
43153;BME280;28756;49.064;9.290;2023-02-28T06:11:50;99850.34;;;-3.14;100.00
43153;BME280;28756;49.064;9.290;2023-02-28T06:14:18;99857.09;;;-3.15;100.00
43153;BME280;28756;49.064;9.290;2023-02-28T06:16:45;99850.34;;;-3.16;100.00
43153;BME280;28756;49.064;9.290;2023-02-28T06:19:11;99865.53;;;-3.19;100.00
43153;BME280;28756;49.064;9.290;2023-02-28T06:21:37;99849.38;;;-3.23;100.00
43153;BME280;28756;49.064;9.290;2023-02-28T06:24:04;99858.66;;;-3.26;100.00
43153;BME280;28756;49.064;9.290;2023-02-28T06:26:30;99866.25;;;-3.29;100.00
43153;BME280;28756;49.064;9.290;2023-02-28T06:28:56;99867.03;;;-3.34;100.00
43153;BME280;28756;49.064;9.290;2023-02-28T06:31:22;99870.41;;;-3.36;100.00
43153;BME280;28756;49.064;9.290;2023-02-28T06:33:49;99872.91;;;-3.39;100.00
43153;BME280;28756;49.064;9.290;2023-02-28T06:36:18;99869.44;;;-3.43;100.00
43153;BME280;28756;49.064;9.290;2023-02-28T06:38:46;99877.06;;;-3.43;100.00
43153;BME280;28756;49.064;9.290;2023-02-28T06:41:17;99880.44;;;-3.45;100.00
43153;BME280;28756;49.064;9.290;2023-02-28T06:43:43;99875.28;;;-3.49;100.00
43153;BME280;28756;49.064;9.290;2023-02-28T06:46:13;99879.56;;;-3.46;100.00
43153;BME280;28756;49.064;9.290;2023-02-28T06:48:40;99891.44;;;-3.45;100.00
43153;BME280;28756;49.064;9.290;2023-02-28T06:51:16;99888.94;;;-3.43;100.00
43153;BME280;28756;49.064;9.290;2023-02-28T06:53:43;99888.13;;;-3.41;100.00
43153;BME280;28756;49.064;9.290;2023-02-28T06:56:14;99891.53;;;-3.40;100.00
43153;BME280;28756;49.064;9.290;2023-02-28T06:58:41;99894.94;;;-3.40;100.00
43153;BME280;28756;49.064;9.290;2023-02-28T07:01:08;99913.66;;;-3.35;100.00
43153;BME280;28756;49.064;9.290;2023-02-28T07:03:35;99911.13;;;-3.33;100.00
43153;BME280;28756;49.064;9.290;2023-02-28T07:06:01;99908.66;;;-3.30;100.00
43153;BME280;28756;49.064;9.290;2023-02-28T07:08:28;99908.72;;;-3.25;100.00
43153;BME280;28756;49.064;9.290;2023-02-28T07:10:57;99912.09;;;-3.25;100.00
43153;BME280;28756;49.064;9.290;2023-02-28T07:13:24;99913.81;;;-3.22;100.00
43153;BME280;28756;49.064;9.290;2023-02-28T07:15:59;99908.72;;;-3.25;100.00
43153;BME280;28756;49.064;9.290;2023-02-28T07:18:26;99904.47;;;-3.26;100.00
43153;BME280;28756;49.064;9.290;2023-02-28T07:20:52;99913.81;;;-3.24;100.00
43153;BME280;28756;49.064;9.290;2023-02-28T07:23:18;99914.72;;;-3.20;100.00
43153;BME280;28756;49.064;9.290;2023-02-28T07:25:44;99914.78;;;-3.17;100.00
43153;BME280;28756;49.064;9.290;2023-02-28T07:28:11;99913.13;;;-3.12;100.00
43153;BME280;28756;49.064;9.290;2023-02-28T07:30:38;99920.84;;;-3.06;100.00
43153;BME280;28756;49.064;9.290;2023-02-28T07:33:04;99911.63;;;-2.97;100.00
43153;BME280;28756;49.064;9.290;2023-02-28T07:35:30;99915.94;;;-2.93;100.00
43153;BME280;28756;49.064;9.290;2023-02-28T07:38:00;99910.06;;;-2.88;100.00
43153;BME280;28756;49.064;9.290;2023-02-28T07:40:27;99914.38;;;-2.85;100.00
43153;BME280;28756;49.064;9.290;2023-02-28T07:42:52;99917.81;;;-2.78;100.00
43153;BME280;28756;49.064;9.290;2023-02-28T07:45:18;99917.81;;;-2.80;100.00
43153;BME280;28756;49.064;9.290;2023-02-28T07:47:45;99917.88;;;-2.77;100.00
43153;BME280;28756;49.064;9.290;2023-02-28T07:50:14;99912.03;;;-2.70;100.00
43153;BME280;28756;49.064;9.290;2023-02-28T07:52:40;99917.13;;;-2.66;100.00
43153;BME280;28756;49.064;9.290;2023-02-28T07:55:08;99921.56;;;-2.53;100.00
43153;BME280;28756;49.064;9.290;2023-02-28T07:57:35;99921.59;;;-2.48;100.00
43153;BME280;28756;49.064;9.290;2023-02-28T08:00:03;99917.38;;;-2.48;100.00
43153;BME280;28756;49.064;9.290;2023-02-28T08:02:29;99915.72;;;-2.44;100.00
43153;BME280;28756;49.064;9.290;2023-02-28T08:04:55;99918.31;;;-2.38;100.00
43153;BME280;28756;49.064;9.290;2023-02-28T08:07:21;99915.91;;;-2.27;100.00
43153;BME280;28756;49.064;9.290;2023-02-28T08:09:47;99925.31;;;-2.22;100.00
43153;BME280;28756;49.064;9.290;2023-02-28T08:12:13;99921.97;;;-2.16;100.00
43153;BME280;28756;49.064;9.290;2023-02-28T08:14:39;99920.31;;;-2.12;100.00
43153;BME280;28756;49.064;9.290;2023-02-28T08:17:05;99924.53;;;-2.14;100.00
43153;BME280;28756;49.064;9.290;2023-02-28T08:19:31;99916.06;;;-2.13;100.00
43153;BME280;28756;49.064;9.290;2023-02-28T08:21:58;99923.78;;;-2.04;100.00
43153;BME280;28756;49.064;9.290;2023-02-28T08:24:26;99914.53;;;-1.94;100.00
43153;BME280;28756;49.064;9.290;2023-02-28T08:26:52;99908.69;;;-1.84;100.00
43153;BME280;28756;49.064;9.290;2023-02-28T08:29:18;99912.06;;;-1.85;100.00
43153;BME280;28756;49.064;9.290;2023-02-28T08:31:44;99912.16;;;-1.74;100.00
43153;BME280;28756;49.064;9.290;2023-02-28T08:34:13;99922.47;;;-1.62;100.00
43153;BME280;28756;49.064;9.290;2023-02-28T08:36:40;99919.13;;;-1.56;100.00
43153;BME280;28756;49.064;9.290;2023-02-28T08:39:06;99909.84;;;-1.48;100.00
43153;BME280;28756;49.064;9.290;2023-02-28T08:41:33;99908.19;;;-1.42;100.00
43153;BME280;28756;49.064;9.290;2023-02-28T08:43:59;99904.00;;;-1.33;100.00
43153;BME280;28756;49.064;9.290;2023-02-28T08:46:25;99909.13;;;-1.28;100.00
43153;BME280;28756;49.064;9.290;2023-02-28T08:48:56;99913.41;;;-1.24;100.00
43153;BME280;28756;49.064;9.290;2023-02-28T08:51:25;99909.97;;;-1.26;100.00
43153;BME280;28756;49.064;9.290;2023-02-28T08:53:57;99921.09;;;-1.18;100.00
43153;BME280;28756;49.064;9.290;2023-02-28T08:56:23;99917.72;;;-1.18;100.00
43153;BME280;28756;49.064;9.290;2023-02-28T08:58:49;99918.69;;;-0.94;100.00
43153;BME280;28756;49.064;9.290;2023-02-28T09:01:19;99911.84;;;-1.00;100.00
43153;BME280;28756;49.064;9.290;2023-02-28T09:03:47;99915.38;;;-0.84;100.00
43153;BME280;28756;49.064;9.290;2023-02-28T09:06:14;99917.94;;;-0.78;100.00
43153;BME280;28756;49.064;9.290;2023-02-28T09:08:42;99917.91;;;-0.84;100.00
43153;BME280;28756;49.064;9.290;2023-02-28T09:11:09;99911.94;;;-0.85;100.00
43153;BME280;28756;49.064;9.290;2023-02-28T09:13:35;99904.34;;;-0.69;100.00
43153;BME280;28756;49.064;9.290;2023-02-28T09:16:03;99909.47;;;-0.69;100.00
43153;BME280;28756;49.064;9.290;2023-02-28T09:18:30;99900.97;;;-0.65;100.00
43153;BME280;28756;49.064;9.290;2023-02-28T09:20:56;99910.38;;;-0.50;100.00
43153;BME280;28756;49.064;9.290;2023-02-28T09:23:24;99907.00;;;-0.52;100.00
43153;BME280;28756;49.064;9.290;2023-02-28T09:25:54;99901.84;;;-0.54;100.00
43153;BME280;28756;49.064;9.290;2023-02-28T09:28:21;99904.47;;;-0.38;100.00
43153;BME280;28756;49.064;9.290;2023-02-28T09:30:53;99907.03;;;-0.40;100.00
43153;BME280;28756;49.064;9.290;2023-02-28T09:33:19;99910.41;;;-0.45;100.00
43153;BME280;28756;49.064;9.290;2023-02-28T09:35:47;99914.72;;;-0.27;100.00
43153;BME280;28756;49.064;9.290;2023-02-28T09:38:13;99899.41;;;-0.24;100.00
43153;BME280;28756;49.064;9.290;2023-02-28T09:41:01;99906.25;;;-0.17;100.00
43153;BME280;28756;49.064;9.290;2023-02-28T09:43:41;99907.16;;;0.11;100.00
43153;BME280;28756;49.064;9.290;2023-02-28T09:46:40;99914.84;;;0.27;100.00
43153;BME280;28756;49.064;9.290;2023-02-28T09:49:18;99912.25;;;0.02;100.00
43153;BME280;28756;49.064;9.290;2023-02-28T09:52:18;99910.56;;;0.21;100.00
43153;BME280;28756;49.064;9.290;2023-02-28T09:54:45;99913.13;;;0.13;100.00
43153;BME280;28756;49.064;9.290;2023-02-28T09:57:33;99919.13;;;0.26;100.00
43153;BME280;28756;49.064;9.290;2023-02-28T10:05:41;99919.97;;;0.30;100.00
43153;BME280;28756;49.064;9.290;2023-02-28T10:08:19;99910.56;;;0.68;100.00
43153;BME280;28756;49.064;9.290;2023-02-28T10:11:00;99919.97;;;0.39;100.00
43153;BME280;28756;49.064;9.290;2023-02-28T10:14:18;99923.38;;;0.55;100.00
43153;BME280;28756;49.064;9.290;2023-02-28T10:17:19;99922.50;;;0.73;100.00
43153;BME280;28756;49.064;9.290;2023-02-28T10:20:00;99919.97;;;0.67;100.00
43153;BME280;28756;49.064;9.290;2023-02-28T10:25:24;99915.69;;;0.72;100.00
43153;BME280;28756;49.064;9.290;2023-02-28T10:27:54;99917.34;;;0.98;100.00
43153;BME280;28756;49.064;9.290;2023-02-28T10:30:24;99921.59;;;1.07;100.00
43153;BME280;28756;49.064;9.290;2023-02-28T10:32:51;99914.72;;;1.23;100.00
43153;BME280;28756;49.064;9.290;2023-02-28T10:35:26;99915.56;;;1.30;97.04
43153;BME280;28756;49.064;9.290;2023-02-28T10:38:00;99915.84;;;2.35;95.15
43153;BME280;28756;49.064;9.290;2023-02-28T10:40:34;99923.56;;;2.32;87.86
43153;BME280;28756;49.064;9.290;2023-02-28T10:48:56;99917.75;;;3.10;75.20
43153;BME280;28756;49.064;9.290;2023-02-28T10:51:23;99932.13;;;2.33;79.43
43153;BME280;28756;49.064;9.290;2023-02-28T10:53:54;99916.41;;;2.68;83.14
43153;BME280;28756;49.064;9.290;2023-02-28T10:56:25;99910.72;;;3.94;74.87
43153;BME280;28756;49.064;9.290;2023-02-28T11:01:43;99920.88;;;2.48;72.95
43153;BME280;28756;49.064;9.290;2023-02-28T11:04:18;99920.50;;;2.90;75.60
43153;BME280;28756;49.064;9.290;2023-02-28T11:06:45;99908.50;;;2.95;71.05
43153;BME280;28756;49.064;9.290;2023-02-28T11:09:39;99913.16;;;2.52;78.17
43153;BME280;28756;49.064;9.290;2023-02-28T11:12:19;99911.34;;;2.62;77.85
43153;BME280;28756;49.064;9.290;2023-02-28T11:14:53;99903.78;;;3.34;72.43
43153;BME280;28756;49.064;9.290;2023-02-28T11:17:26;99903.53;;;4.17;69.58
43153;BME280;28756;49.064;9.290;2023-02-28T11:20:00;99903.66;;;4.07;69.44
43153;BME280;28756;49.064;9.290;2023-02-28T11:22:32;99909.13;;;3.86;64.85
43153;BME280;28756;49.064;9.290;2023-02-28T11:25:09;99899.19;;;2.83;73.15
43153;BME280;28756;49.064;9.290;2023-02-28T11:27:53;99899.84;;;3.74;72.03
43153;BME280;28756;49.064;9.290;2023-02-28T11:30:33;99896.19;;;3.23;70.02
43153;BME280;28756;49.064;9.290;2023-02-28T11:33:00;99898.19;;;2.96;74.30
43153;BME280;28756;49.064;9.290;2023-02-28T11:35:38;99897.75;;;2.49;75.32
43153;BME280;28756;49.064;9.290;2023-02-28T11:38:09;99896.22;;;2.30;80.54
43153;BME280;28756;49.064;9.290;2023-02-28T11:44:03;99881.72;;;3.14;75.52
43153;BME280;28756;49.064;9.290;2023-02-28T11:46:53;99882.38;;;3.32;73.33
43153;BME280;28756;49.064;9.290;2023-02-28T11:52:55;99886.88;;;4.39;65.84
43153;BME280;28756;49.064;9.290;2023-02-28T11:55:35;99883.56;;;3.72;68.19
43153;BME280;28756;49.064;9.290;2023-02-28T11:58:22;99869.75;;;4.37;67.53
43153;BME280;28756;49.064;9.290;2023-02-28T12:07:09;99877.06;;;2.68;76.46
43153;BME280;28756;49.064;9.290;2023-02-28T12:12:43;99889.34;;;2.36;85.65
43153;BME280;28756;49.064;9.290;2023-02-28T12:15:33;99883.78;;;2.83;84.44
43153;BME280;28756;49.064;9.290;2023-02-28T12:18:27;99877.28;;;3.27;81.87
43153;BME280;28756;49.064;9.290;2023-02-28T12:27:12;99879.38;;;2.93;77.74
43153;BME280;28756;49.064;9.290;2023-02-28T12:32:39;99867.22;;;3.07;78.38
43153;BME280;28756;49.064;9.290;2023-02-28T12:38:19;99870.88;;;2.86;79.17
43153;BME280;28756;49.064;9.290;2023-02-28T12:41:04;99859.63;;;2.99;79.07
43153;BME280;28756;49.064;9.290;2023-02-28T12:43:47;99862.44;;;2.73;80.60
43153;BME280;28756;49.064;9.290;2023-02-28T12:46:24;99863.94;;;2.97;78.62
43153;BME280;28756;49.064;9.290;2023-02-28T12:52:12;99848.91;;;3.37;79.25
43153;BME280;28756;49.064;9.290;2023-02-28T12:54:49;99852.06;;;3.56;75.03
43153;BME280;28756;49.064;9.290;2023-02-28T13:00:37;99852.97;;;3.52;78.22
43153;BME280;28756;49.064;9.290;2023-02-28T13:11:03;99843.09;;;3.21;72.87
43153;BME280;28756;49.064;9.290;2023-02-28T13:13:30;99841.66;;;3.65;74.29
43153;BME280;28756;49.064;9.290;2023-02-28T13:15:59;99836.53;;;3.65;74.35
43153;BME280;28756;49.064;9.290;2023-02-28T13:21:07;99840.34;;;3.35;77.11
43153;BME280;28756;49.064;9.290;2023-02-28T13:26:02;99838.56;;;3.41;77.22
43153;BME280;28756;49.064;9.290;2023-02-28T13:29:27;99831.69;;;3.42;74.59
43153;BME280;28756;49.064;9.290;2023-02-28T13:34:41;99827.94;;;2.97;78.58
43153;BME280;28756;49.064;9.290;2023-02-28T13:40:06;99835.38;;;3.21;81.75
43153;BME280;28756;49.064;9.290;2023-02-28T13:42:48;99833.03;;;3.00;79.07
43153;BME280;28756;49.064;9.290;2023-02-28T13:45:24;99834.63;;;3.11;82.03
43153;BME280;28756;49.064;9.290;2023-02-28T13:48:02;99832.03;;;3.14;81.57
43153;BME280;28756;49.064;9.290;2023-02-28T13:50:41;99826.97;;;3.06;78.61
43153;BME280;28756;49.064;9.290;2023-02-28T13:55:58;99830.09;;;3.33;80.57
43153;BME280;28756;49.064;9.290;2023-02-28T13:59:06;99833.28;;;3.49;78.74
43153;BME280;28756;49.064;9.290;2023-02-28T14:02:10;99835.81;;;3.54;75.88
43153;BME280;28756;49.064;9.290;2023-02-28T14:05:12;99835.16;;;3.39;74.37
43153;BME280;28756;49.064;9.290;2023-02-28T14:07:45;99839.66;;;3.22;78.70
43153;BME280;28756;49.064;9.290;2023-02-28T14:10:37;99831.78;;;3.32;80.09
43153;BME280;28756;49.064;9.290;2023-02-28T14:13:40;99830.34;;;3.13;80.16
43153;BME280;28756;49.064;9.290;2023-02-28T14:16:25;99831.13;;;3.18;80.49
43153;BME280;28756;49.064;9.290;2023-02-28T14:19:21;99832.03;;;3.14;81.01
43153;BME280;28756;49.064;9.290;2023-02-28T14:25:20;99833.78;;;3.12;83.44
43153;BME280;28756;49.064;9.290;2023-02-28T14:34:05;99826.94;;;3.11;77.98
43153;BME280;28756;49.064;9.290;2023-02-28T14:36:41;99833.00;;;3.04;80.32
43153;BME280;28756;49.064;9.290;2023-02-28T14:39:21;99827.91;;;3.02;79.82
43153;BME280;28756;49.064;9.290;2023-02-28T14:41:48;99827.97;;;2.94;79.68
43153;BME280;28756;49.064;9.290;2023-02-28T14:44:26;99824.47;;;3.02;83.92
43153;BME280;28756;49.064;9.290;2023-02-28T14:46:59;99826.97;;;3.09;82.75
43153;BME280;28756;49.064;9.290;2023-02-28T14:49:41;99829.56;;;3.08;82.46
43153;BME280;28756;49.064;9.290;2023-02-28T14:54:38;99833.75;;;3.13;82.68
43153;BME280;28756;49.064;9.290;2023-02-28T14:57:05;99836.47;;;3.01;81.90
43153;BME280;28756;49.064;9.290;2023-02-28T14:59:35;99837.38;;;2.95;83.21
43153;BME280;28756;49.064;9.290;2023-02-28T15:02:22;99837.38;;;2.98;86.32
43153;BME280;28756;49.064;9.290;2023-02-28T15:05:02;99832.19;;;3.02;84.55
43153;BME280;28756;49.064;9.290;2023-02-28T15:07:36;99839.06;;;2.98;83.95
43153;BME280;28756;49.064;9.290;2023-02-28T15:10:30;99844.25;;;2.93;85.72